createdAt,value
2022-09-20T00:00:45.404Z,15.00
2022-09-20T00:03:12.884Z,15.00
2022-09-20T00:05:41.011Z,15.40
2022-09-20T00:08:10.054Z,15.70
2022-09-20T00:10:37.968Z,15.70
2022-09-20T00:13:08.103Z,15.50
2022-09-20T00:15:39.897Z,15.80
2022-09-20T00:18:06.588Z,15.90
2022-09-20T00:20:33.282Z,15.70
2022-09-20T00:22:59.959Z,15.60
2022-09-20T00:25:26.680Z,15.50
2022-09-20T00:27:53.470Z,15.90
2022-09-20T00:30:21.084Z,16.30
2022-09-20T00:32:47.813Z,16.60
2022-09-20T00:35:14.489Z,16.80
2022-09-20T00:37:41.885Z,16.70
2022-09-20T00:40:13.818Z,16.90
2022-09-20T00:42:40.613Z,17.00
2022-09-20T00:45:08.727Z,16.80
2022-09-20T00:47:40.688Z,16.80
2022-09-20T00:50:26.058Z,16.90
2022-09-20T00:52:56.112Z,17.20
2022-09-20T00:55:22.953Z,17.10
2022-09-20T00:57:49.988Z,17.20
2022-09-20T01:00:16.927Z,17.10
2022-09-20T01:02:48.542Z,17.10
2022-09-20T01:05:15.815Z,17.40
2022-09-20T01:07:43.244Z,17.50
2022-09-20T01:10:09.928Z,17.30
2022-09-20T01:12:36.994Z,17.40
2022-09-20T01:15:05.065Z,17.60
2022-09-20T01:17:32.814Z,17.60
2022-09-20T01:20:11.840Z,17.60
2022-09-20T01:22:44.512Z,17.60
2022-09-20T01:25:17.309Z,17.60
2022-09-20T01:27:48.648Z,17.50
2022-09-20T01:30:25.821Z,17.50
2022-09-20T01:32:52.491Z,17.50
2022-09-20T01:35:21.340Z,17.60
2022-09-20T01:38:06.961Z,17.70
2022-09-20T01:40:44.998Z,17.60
2022-09-20T01:43:30.667Z,17.60
2022-09-20T01:45:58.783Z,17.50
2022-09-20T01:48:30.024Z,17.50
2022-09-20T01:51:10.582Z,17.40
2022-09-20T01:54:10.542Z,17.50
2022-09-20T01:56:46.338Z,17.40
2022-09-20T01:59:24.752Z,17.40
2022-09-20T02:01:51.818Z,17.40
2022-09-20T02:04:27.546Z,17.20
2022-09-20T02:07:12.372Z,17.00
2022-09-20T02:09:48.011Z,16.70
2022-09-20T02:12:14.819Z,16.70
2022-09-20T02:14:47.311Z,16.50
2022-09-20T02:17:18.155Z,16.50
2022-09-20T02:19:48.096Z,16.50
2022-09-20T02:22:47.489Z,16.40
2022-09-20T02:25:32.775Z,16.40
2022-09-20T02:28:05.399Z,16.40
2022-09-20T02:30:43.930Z,16.10
2022-09-20T02:33:11.162Z,16.10
2022-09-20T02:35:52.032Z,16.10
2022-09-20T02:38:25.597Z,16.10
2022-09-20T02:41:00.340Z,16.30
2022-09-20T02:43:44.835Z,16.40
2022-09-20T02:46:11.654Z,16.30
2022-09-20T02:48:43.533Z,16.20
2022-09-20T02:51:13.232Z,16.00
2022-09-20T02:53:46.776Z,15.90
2022-09-20T02:56:14.133Z,15.80
2022-09-20T02:58:40.858Z,15.60
2022-09-20T03:01:13.708Z,15.50
2022-09-20T03:03:49.128Z,15.40
2022-09-20T03:06:27.437Z,15.20
2022-09-20T03:08:54.091Z,15.10
2022-09-20T03:11:27.767Z,15.20
2022-09-20T03:14:13.038Z,15.30
2022-09-20T03:16:39.885Z,15.50
2022-09-20T03:19:21.652Z,15.30
2022-09-20T03:21:57.377Z,15.20
2022-09-20T03:24:36.043Z,15.30
2022-09-20T03:27:07.728Z,15.40
2022-09-20T03:29:36.254Z,15.40
2022-09-20T03:32:21.758Z,15.30
2022-09-20T03:35:03.618Z,15.00
2022-09-20T03:37:42.393Z,14.80
2022-09-20T03:40:36.622Z,14.80
2022-09-20T03:43:29.677Z,14.90
2022-09-20T03:46:11.543Z,14.70
2022-09-20T03:48:56.407Z,14.60
2022-09-20T03:51:33.949Z,14.30
2022-09-20T03:54:19.751Z,14.20
2022-09-20T03:57:05.030Z,14.20
2022-09-20T03:59:50.305Z,14.30
2022-09-20T04:02:35.644Z,14.50
2022-09-20T04:05:07.511Z,14.60
2022-09-20T04:08:04.075Z,14.60
2022-09-20T04:10:49.631Z,14.60
2022-09-20T04:13:16.628Z,14.60
2022-09-20T04:15:43.400Z,14.40
2022-09-20T04:18:20.039Z,14.30
2022-09-20T04:21:13.200Z,14.90
2022-09-20T04:23:55.025Z,15.20
2022-09-20T04:26:26.465Z,15.70
2022-09-20T04:29:01.924Z,16.10
2022-09-20T04:31:31.938Z,16.30
2022-09-20T04:33:59.790Z,16.50
2022-09-20T04:36:54.462Z,16.30
2022-09-20T04:39:21.212Z,16.30
2022-09-20T04:41:51.215Z,16.40
2022-09-20T04:44:17.894Z,16.30
2022-09-20T04:46:56.750Z,16.10
2022-09-20T04:49:33.726Z,16.00
2022-09-20T04:52:19.276Z,15.60
2022-09-20T04:54:52.147Z,15.60
2022-09-20T04:57:47.989Z,15.40
2022-09-20T05:00:19.169Z,15.20
2022-09-20T05:02:46.966Z,15.20
2022-09-20T05:05:32.255Z,15.20
2022-09-20T05:08:19.337Z,14.90
2022-09-20T05:10:48.806Z,14.60
2022-09-20T05:13:23.409Z,14.40
2022-09-20T05:15:50.833Z,14.30
2022-09-20T05:18:20.948Z,14.20
2022-09-20T05:20:56.872Z,14.30
2022-09-20T05:23:36.721Z,14.40
2022-09-20T05:26:08.161Z,14.80
2022-09-20T05:28:41.060Z,14.60
2022-09-20T05:31:07.748Z,14.30
2022-09-20T05:33:45.066Z,14.70
2022-09-20T05:36:21.461Z,14.90
2022-09-20T05:39:05.079Z,15.10
2022-09-20T05:41:42.932Z,15.60
2022-09-20T05:44:21.887Z,15.90
2022-09-20T05:46:57.784Z,16.20
2022-09-20T05:49:43.123Z,16.10
2022-09-20T05:52:12.571Z,16.30
2022-09-20T05:54:48.019Z,16.60
2022-09-20T05:57:37.927Z,16.80
2022-09-20T06:00:10.618Z,16.80
2022-09-20T06:02:54.050Z,16.80
2022-09-20T06:05:53.223Z,16.80
2022-09-20T06:08:28.944Z,16.70
2022-09-20T06:11:07.787Z,16.80
2022-09-20T06:14:02.073Z,16.70
2022-09-20T06:16:35.236Z,16.60
2022-09-20T06:19:06.891Z,16.50
2022-09-20T06:21:41.921Z,16.60
2022-09-20T06:24:35.063Z,16.60
2022-09-20T06:27:04.004Z,16.40
2022-09-20T06:29:33.207Z,16.30
2022-09-20T06:32:00.174Z,16.40
2022-09-20T06:34:28.008Z,16.60
2022-09-20T06:37:18.458Z,16.70
2022-09-20T06:40:06.936Z,16.80
2022-09-20T06:42:33.734Z,17.20
2022-09-20T06:45:00.498Z,17.40
2022-09-20T06:47:27.544Z,17.60
2022-09-20T06:49:54.407Z,17.80
2022-09-20T06:52:22.750Z,18.10
2022-09-20T06:54:51.805Z,18.20
2022-09-20T06:57:22.050Z,18.50
2022-09-20T06:59:48.781Z,18.70
2022-09-20T07:02:15.504Z,18.80
2022-09-20T07:04:43.657Z,18.90
2022-09-20T07:07:15.324Z,19.10
2022-09-20T07:09:42.100Z,19.50
2022-09-20T07:12:12.032Z,19.50
2022-09-20T07:14:39.043Z,19.70
2022-09-20T07:17:06.573Z,19.80
2022-09-20T07:19:33.901Z,20.00
2022-09-20T07:22:00.629Z,20.20
2022-09-20T07:24:27.337Z,20.60
2022-09-20T07:26:55.496Z,20.60
2022-09-20T07:29:23.097Z,20.60
2022-09-20T07:31:50.805Z,20.30
2022-09-20T07:34:20.480Z,20.20
2022-09-20T07:36:47.596Z,20.30
2022-09-20T07:39:14.513Z,20.30
2022-09-20T07:41:41.384Z,20.20
2022-09-20T07:44:27.768Z,20.10
2022-09-20T07:46:56.185Z,20.20
2022-09-20T07:49:23.232Z,20.30
2022-09-20T07:51:50.444Z,20.40
2022-09-20T07:54:17.595Z,20.20
2022-09-20T07:56:44.891Z,20.30
2022-09-20T07:59:11.800Z,20.40
2022-09-20T08:01:39.017Z,20.50
2022-09-20T08:04:06.295Z,20.50
2022-09-20T08:06:35.884Z,20.60
2022-09-20T08:09:02.761Z,20.80
2022-09-20T08:11:30.764Z,20.70
2022-09-20T08:14:08.262Z,20.60
2022-09-20T08:16:40.145Z,20.60
2022-09-20T08:19:06.970Z,20.70
2022-09-20T08:21:34.619Z,20.80
2022-09-20T08:24:01.529Z,20.70
2022-09-20T08:26:28.962Z,20.40
2022-09-20T08:28:56.770Z,20.40
2022-09-20T08:31:24.722Z,20.80
2022-09-20T08:33:52.401Z,21.10
2022-09-20T08:36:20.802Z,21.20
2022-09-20T08:41:36.347Z,21.10
2022-09-20T08:44:11.712Z,20.80
2022-09-20T08:46:40.483Z,21.00
2022-09-20T08:49:10.898Z,21.50
2022-09-20T08:51:38.780Z,21.50
2022-09-20T08:54:13.506Z,21.40
2022-09-20T08:56:40.225Z,21.50
2022-09-20T08:59:14.031Z,21.40
2022-09-20T09:01:41.689Z,21.20
2022-09-20T09:04:16.128Z,21.20
2022-09-20T09:06:43.617Z,21.30
2022-09-20T09:09:26.946Z,21.30
2022-09-20T09:11:54.472Z,21.30
2022-09-20T09:14:44.451Z,21.50
2022-09-20T09:17:12.066Z,21.60
2022-09-20T09:20:05.155Z,21.40
2022-09-20T09:22:40.695Z,21.50
2022-09-20T09:25:08.992Z,21.80
2022-09-20T09:27:36.682Z,22.00
2022-09-20T09:30:18.742Z,22.10
2022-09-20T09:32:45.437Z,22.10
2022-09-20T09:35:26.216Z,22.10
2022-09-20T09:37:57.376Z,22.10
2022-09-20T09:40:24.383Z,22.10
2022-09-20T09:42:53.004Z,22.00
2022-09-20T09:45:28.227Z,22.40
2022-09-20T09:47:56.281Z,22.50
2022-09-20T09:50:24.725Z,22.80
2022-09-20T09:53:04.242Z,22.70
2022-09-20T09:55:38.999Z,22.50
2022-09-20T09:58:31.848Z,22.70
2022-09-20T10:01:01.331Z,22.30
2022-09-20T10:03:51.446Z,22.70
2022-09-20T10:06:31.009Z,22.80
2022-09-20T10:09:12.912Z,22.80
2022-09-20T10:11:45.434Z,22.60
2022-09-20T10:14:29.579Z,22.70
2022-09-20T10:17:31.664Z,22.60
2022-09-20T10:20:08.051Z,22.80
2022-09-20T10:23:26.799Z,23.10
2022-09-20T10:25:55.036Z,22.90
2022-09-20T10:28:48.649Z,23.00
2022-09-20T10:31:24.979Z,23.20
2022-09-20T10:34:11.010Z,23.20
2022-09-20T10:36:52.844Z,23.20
2022-09-20T10:39:33.104Z,23.10
2022-09-20T10:42:33.779Z,23.20
2022-09-20T10:45:00.544Z,23.30
2022-09-20T10:47:33.140Z,23.20
2022-09-20T10:50:08.862Z,23.20
2022-09-20T10:52:55.892Z,23.00
2022-09-20T10:55:23.756Z,23.10
2022-09-20T10:58:01.410Z,23.50
2022-09-20T11:00:28.786Z,23.00
2022-09-20T11:03:18.581Z,23.40
2022-09-20T11:06:03.958Z,23.90
2022-09-20T11:08:33.952Z,24.00
2022-09-20T11:11:07.617Z,24.30
2022-09-20T11:13:37.403Z,24.00
2022-09-20T11:16:11.761Z,23.80
2022-09-20T11:18:42.892Z,23.90
2022-09-20T11:21:16.569Z,23.80
2022-09-20T11:24:03.580Z,23.60
2022-09-20T11:26:31.258Z,23.50
2022-09-20T11:29:03.076Z,23.50
2022-09-20T11:31:37.402Z,23.40
2022-09-20T11:34:13.555Z,23.30
2022-09-20T11:36:45.272Z,24.10
2022-09-20T11:39:17.148Z,24.10
2022-09-20T11:41:44.813Z,24.20
2022-09-20T11:44:14.084Z,24.10
2022-09-20T11:46:50.439Z,23.90
2022-09-20T11:49:24.517Z,24.00
2022-09-20T11:51:54.118Z,24.20
2022-09-20T11:54:31.713Z,24.20
2022-09-20T11:56:59.319Z,24.20
2022-09-20T11:59:29.169Z,23.80
2022-09-20T12:01:59.605Z,24.10
2022-09-20T12:04:33.971Z,24.40
2022-09-20T12:07:08.335Z,24.50
2022-09-20T12:09:40.131Z,24.00
2022-09-20T12:12:27.228Z,24.30
2022-09-20T12:14:55.253Z,23.90
2022-09-20T12:17:40.741Z,23.50
2022-09-20T12:20:26.017Z,23.40
2022-09-20T12:22:52.740Z,23.30
2022-09-20T12:25:36.418Z,23.30
2022-09-20T12:28:03.238Z,23.30
2022-09-20T12:31:14.112Z,23.10
2022-09-20T12:33:59.644Z,23.90
2022-09-20T12:36:27.604Z,24.60
2022-09-20T12:38:56.779Z,24.20
2022-09-20T12:41:28.576Z,24.10
2022-09-20T12:43:57.654Z,24.50
2022-09-20T12:46:31.107Z,25.10
2022-09-20T12:49:48.886Z,24.70
2022-09-20T12:52:41.798Z,24.80
2022-09-20T12:55:11.363Z,24.60
2022-09-20T12:57:38.400Z,24.50
2022-09-20T13:00:06.542Z,24.60
2022-09-20T13:02:52.017Z,24.50
2022-09-20T13:05:39.219Z,24.60
2022-09-20T13:08:23.131Z,24.60
2022-09-20T13:11:01.832Z,24.50
2022-09-20T13:13:32.029Z,24.60
2022-09-20T13:15:59.710Z,24.50
2022-09-20T13:18:27.765Z,24.30
2022-09-20T13:20:56.307Z,24.40
2022-09-20T13:23:27.635Z,24.70
2022-09-20T13:25:57.630Z,25.20
2022-09-20T13:28:44.180Z,25.30
2022-09-20T13:31:26.442Z,25.00
2022-09-20T13:33:53.604Z,24.20
2022-09-20T13:36:26.328Z,24.30
2022-09-20T13:38:53.352Z,24.90
2022-09-20T13:41:20.153Z,25.20
2022-09-20T13:43:49.381Z,24.80
2022-09-20T13:46:17.537Z,25.20
2022-09-20T13:48:48.030Z,25.60
2022-09-20T13:51:18.988Z,25.20
2022-09-20T13:53:47.443Z,25.30
2022-09-20T13:56:18.152Z,24.80
2022-09-20T13:58:45.059Z,24.50
2022-09-20T14:01:39.866Z,24.70
2022-09-20T14:04:17.255Z,24.80
2022-09-20T14:06:45.104Z,24.70
2022-09-20T14:09:20.878Z,24.80
2022-09-20T14:11:47.970Z,24.80
2022-09-20T14:14:19.908Z,24.90
2022-09-20T14:16:50.001Z,24.90
2022-09-20T14:19:18.576Z,25.00
2022-09-20T14:21:46.989Z,25.10
2022-09-20T14:24:13.832Z,25.00
2022-09-20T14:26:41.633Z,25.10
2022-09-20T14:29:27.130Z,24.90
2022-09-20T14:31:54.761Z,24.90
2022-09-20T14:34:21.569Z,24.80
2022-09-20T14:36:49.418Z,24.60
2022-09-20T14:39:17.912Z,24.50
2022-09-20T14:41:46.507Z,24.50
2022-09-20T14:44:26.225Z,24.00
2022-09-20T14:46:54.340Z,23.90
2022-09-20T14:49:29.511Z,24.10
2022-09-20T14:52:14.981Z,24.10
2022-09-20T14:54:41.706Z,23.80
2022-09-20T14:57:08.723Z,23.90
2022-09-20T14:59:36.645Z,23.90
2022-09-20T15:02:03.541Z,23.70
2022-09-20T15:04:32.801Z,23.40
2022-09-20T15:07:03.473Z,23.40
2022-09-20T15:09:30.204Z,23.40
2022-09-20T15:12:03.970Z,23.50
2022-09-20T15:14:35.045Z,23.60
2022-09-20T15:17:04.116Z,23.70
2022-09-20T15:19:30.880Z,23.60
2022-09-20T15:21:57.624Z,23.50
2022-09-20T15:24:24.666Z,23.30
2022-09-20T15:26:51.851Z,23.10
2022-09-20T15:29:18.701Z,23.20
2022-09-20T15:31:46.950Z,23.20
2022-09-20T15:34:14.194Z,23.10
2022-09-20T15:36:41.438Z,23.10
2022-09-20T15:39:08.677Z,23.10
2022-09-20T15:41:35.800Z,23.00
2022-09-20T15:44:06.530Z,22.90
2022-09-20T15:46:33.755Z,22.90
2022-09-20T15:49:02.671Z,22.80
2022-09-20T15:51:30.452Z,22.80
2022-09-20T15:54:01.278Z,22.60
2022-09-20T15:56:30.336Z,22.70
2022-09-20T15:59:01.397Z,22.70
2022-09-20T16:01:29.221Z,22.70
2022-09-20T16:03:56.034Z,22.70
2022-09-20T16:06:23.835Z,22.50
2022-09-20T16:08:51.029Z,22.40
2022-09-20T16:11:22.699Z,22.30
2022-09-20T16:13:54.240Z,22.30
2022-09-20T16:16:21.387Z,22.30
2022-09-20T16:19:07.181Z,22.20
2022-09-20T16:21:34.623Z,22.20
2022-09-20T16:24:01.631Z,22.10
2022-09-20T16:26:29.106Z,21.90
2022-09-20T16:28:56.359Z,21.90
2022-09-20T16:31:39.885Z,21.80
2022-09-20T16:34:06.863Z,21.70
2022-09-20T16:36:33.803Z,21.60
2022-09-20T16:39:01.236Z,21.60
2022-09-20T16:41:28.953Z,21.50
2022-09-20T16:43:56.015Z,21.40
2022-09-20T16:46:25.255Z,21.30
2022-09-20T16:48:53.756Z,21.10
2022-09-20T16:51:25.063Z,21.00
2022-09-20T16:53:53.910Z,20.90
2022-09-20T16:56:21.996Z,20.80
2022-09-20T16:58:49.028Z,20.70
2022-09-20T17:01:16.735Z,20.40
2022-09-20T17:03:44.739Z,20.00
2022-09-20T17:06:12.123Z,19.70
2022-09-20T17:08:40.066Z,19.60
2022-09-20T17:11:08.549Z,19.60
2022-09-20T17:13:36.283Z,19.40
2022-09-20T17:16:04.618Z,19.10
2022-09-20T17:18:31.371Z,19.00
2022-09-20T17:21:02.671Z,18.70
2022-09-20T17:23:29.507Z,18.60
2022-09-20T17:26:13.592Z,18.70
2022-09-20T17:28:44.384Z,18.70
2022-09-20T17:31:18.544Z,18.60
2022-09-20T17:33:45.880Z,18.60
2022-09-20T17:36:15.456Z,18.60
2022-09-20T17:38:42.275Z,18.60
2022-09-20T17:41:12.585Z,18.50
2022-09-20T17:43:39.713Z,18.40
2022-09-20T17:46:07.606Z,18.30
2022-09-20T17:48:34.494Z,18.20
2022-09-20T17:51:02.332Z,18.20
2022-09-20T17:53:32.757Z,18.10
2022-09-20T17:56:00.262Z,18.10
2022-09-20T17:58:27.867Z,18.00
2022-09-20T18:00:56.670Z,17.90
2022-09-20T18:03:26.222Z,17.90
2022-09-20T18:05:53.417Z,17.90
2022-09-20T18:08:20.111Z,17.90
2022-09-20T18:10:56.731Z,17.80
2022-09-20T18:13:23.500Z,17.70
2022-09-20T18:15:50.259Z,17.60
2022-09-20T18:18:17.081Z,17.60
2022-09-20T18:20:43.876Z,17.60
2022-09-20T18:23:10.643Z,17.50
2022-09-20T18:25:57.392Z,17.50
2022-09-20T18:28:24.080Z,17.50
2022-09-20T18:31:03.701Z,17.40
2022-09-20T18:33:31.337Z,17.40
2022-09-20T18:36:02.483Z,17.30
2022-09-20T18:38:29.856Z,17.30
2022-09-20T18:41:00.423Z,17.30
2022-09-20T18:43:28.319Z,17.40
2022-09-20T18:45:55.266Z,17.30
2022-09-20T18:48:24.969Z,17.20
2022-09-20T18:50:57.687Z,17.10
2022-09-20T18:53:25.335Z,17.10
2022-09-20T18:55:53.467Z,17.00
2022-09-20T18:58:21.396Z,17.00
2022-09-20T19:01:20.893Z,17.00
2022-09-20T19:03:53.641Z,16.90
2022-09-20T19:06:22.979Z,17.00
2022-09-20T19:09:02.449Z,17.00
2022-09-20T19:11:32.930Z,17.00
2022-09-20T19:14:32.006Z,16.90
2022-09-20T19:17:02.271Z,16.90
2022-09-20T19:19:50.442Z,16.90
2022-09-20T19:22:40.696Z,16.80
2022-09-20T19:25:18.763Z,16.70
2022-09-20T19:27:45.908Z,16.60
2022-09-20T19:30:13.622Z,16.50
2022-09-20T19:32:40.488Z,16.60
2022-09-20T19:35:15.089Z,16.50
2022-09-20T19:37:58.318Z,16.50
2022-09-20T19:40:25.287Z,16.60
2022-09-20T19:42:53.221Z,16.60
2022-09-20T19:45:22.808Z,16.60
2022-09-20T19:48:04.629Z,16.60
2022-09-20T19:50:46.415Z,16.60
2022-09-20T19:53:14.698Z,16.60
2022-09-20T19:55:46.244Z,16.70
2022-09-20T19:58:13.518Z,16.60
2022-09-20T20:00:42.931Z,16.60
2022-09-20T20:03:12.379Z,16.50
2022-09-20T20:05:40.883Z,16.50
2022-09-20T20:08:19.709Z,16.50
2022-09-20T20:10:47.132Z,16.50
2022-09-20T20:13:47.161Z,16.50
2022-09-20T20:16:20.981Z,16.50
2022-09-20T20:19:08.564Z,16.50
2022-09-20T20:21:41.295Z,16.50
2022-09-20T20:24:27.030Z,16.50
2022-09-20T20:26:53.829Z,16.50
2022-09-20T20:29:20.699Z,16.40
2022-09-20T20:31:47.369Z,16.30
2022-09-20T20:34:16.309Z,16.30
2022-09-20T20:36:43.911Z,16.20
2022-09-20T20:39:10.956Z,16.20
2022-09-20T20:41:38.690Z,16.20
2022-09-20T20:44:06.359Z,16.30
2022-09-20T20:46:35.833Z,16.20
2022-09-20T20:49:03.707Z,16.20
2022-09-20T20:51:32.908Z,16.40
2022-09-20T20:53:59.895Z,16.30
2022-09-20T20:56:30.029Z,16.40
2022-09-20T20:59:00.839Z,16.30
2022-09-20T21:01:29.113Z,16.30
2022-09-20T21:03:57.598Z,16.30
2022-09-20T21:06:28.443Z,16.30
2022-09-20T21:08:55.291Z,16.30
2022-09-20T21:11:23.514Z,16.30
2022-09-20T21:13:53.846Z,16.30
2022-09-20T21:16:24.976Z,16.30
2022-09-20T21:18:51.727Z,16.20
2022-09-20T21:21:28.228Z,16.20
2022-09-20T21:23:56.068Z,16.20
2022-09-20T21:26:23.458Z,16.30
2022-09-20T21:28:54.468Z,16.20
2022-09-20T21:31:22.469Z,16.20
2022-09-20T21:33:49.764Z,16.10
2022-09-20T21:36:17.630Z,16.10
2022-09-20T21:38:44.911Z,16.20
2022-09-20T21:41:13.422Z,16.10
2022-09-20T21:43:41.865Z,16.10
2022-09-20T21:46:11.482Z,16.10
2022-09-20T21:48:39.310Z,16.20
2022-09-20T21:51:06.727Z,16.10
2022-09-20T21:53:34.072Z,16.10
2022-09-20T21:56:02.068Z,16.10
2022-09-20T21:58:29.296Z,16.20
2022-09-20T22:01:00.436Z,16.10
2022-09-20T22:03:36.920Z,16.10
2022-09-20T22:06:07.262Z,16.00
2022-09-20T22:08:34.146Z,16.00
2022-09-20T22:11:01.127Z,16.00
2022-09-20T22:13:27.834Z,16.00
2022-09-20T22:16:02.161Z,16.00
2022-09-20T22:18:29.237Z,16.10
2022-09-20T22:21:03.664Z,16.10
2022-09-20T22:23:30.450Z,16.10
2022-09-20T22:26:01.246Z,16.10
2022-09-20T22:28:28.230Z,16.20
2022-09-20T22:30:55.037Z,16.10
2022-09-20T22:33:21.836Z,16.20
2022-09-20T22:35:48.528Z,16.30
2022-09-20T22:38:15.313Z,16.30
2022-09-20T22:40:52.191Z,16.40
2022-09-20T22:43:18.876Z,16.50
2022-09-20T22:45:45.665Z,16.60
2022-09-20T22:48:12.398Z,16.50
2022-09-20T22:50:39.072Z,16.50
2022-09-20T22:53:05.861Z,16.60
2022-09-20T22:55:32.539Z,16.60
2022-09-20T22:57:59.225Z,16.60
2022-09-20T23:00:25.987Z,16.60
2022-09-20T23:02:58.946Z,16.70
2022-09-20T23:05:26.720Z,16.70
2022-09-20T23:07:53.763Z,16.70
2022-09-20T23:10:20.566Z,16.70
2022-09-20T23:12:51.654Z,16.60
2022-09-20T23:15:18.527Z,16.70
2022-09-20T23:17:45.330Z,16.70
2022-09-20T23:20:12.148Z,16.70
2022-09-20T23:22:38.918Z,16.60
2022-09-20T23:25:05.824Z,16.60
2022-09-20T23:27:32.482Z,16.60
2022-09-20T23:29:59.300Z,16.70
2022-09-20T23:32:26.061Z,16.70
2022-09-20T23:34:52.736Z,16.70
2022-09-20T23:37:19.500Z,16.60
2022-09-20T23:39:46.535Z,16.60
2022-09-20T23:42:13.254Z,16.70
2022-09-20T23:44:39.943Z,16.70
2022-09-20T23:47:06.625Z,16.60
2022-09-20T23:49:33.451Z,16.70
2022-09-20T23:52:00.232Z,16.70
2022-09-20T23:54:26.909Z,16.70
2022-09-20T23:56:53.656Z,16.60
2022-09-20T23:59:20.348Z,16.70
